Kathryn B. — WDE2619 — position and weather

sailwx.info

Track history (hours):
 
Tides and Currents Weather Stations Pressure Air Temp Water Temp Dewpoint Dewpoint Depression Visibility Wind Speed Wind Dir Waves Ship Positions

Kathryn B.

Owner: Bernert Barge Lines, Oregon City, OR. More information available from US FCC via Universal Licensing System and Coast Guard Vessel Documentation Center.

Last reported at 2017-Dec-11 17:00 UTC. Time now 2017-Dec-13 14:59 UTC.
Position N 45°33' W 122°18'.

Length 34 m; draft 2.1 m.

Type: Towing. MMSI: 2421136.

Date/timePositionNaut miles runAvg speedWind from/ knotsBaromVisibWave heightAir tempDewpointWater temp
2017-Dec-11 17:00N 45°33' W 122°18'3 6.1
2017-Dec-11 16:30N 45°34' W 122°22'3 5.8
2017-Dec-11 16:00N 45°34' W 122°26'2 4.4
2017-Dec-11 15:30N 45°35' W 122°29'0 0.1
2017-Dec-11 15:00N 45°35' W 122°29'0 0.0
2017-Dec-11 14:30N 45°35' W 122°29'0 0.1
2017-Dec-11 14:00N 45°35' W 122°29'0 0.0
2017-Dec-11 13:30N 45°35' W 122°29'0 0.0
2017-Dec-11 13:00N 45°35' W 122°29'0 0.0
2017-Dec-11 12:30N 45°35' W 122°29'0 0.0
2017-Dec-11 12:00N 45°35' W 122°29'0 0.0
2017-Dec-11 11:30N 45°35' W 122°29'0 0.0
2017-Dec-11 11:00N 45°35' W 122°29'0 0.0
2017-Dec-11 10:30N 45°35' W 122°29'0 0.0
2017-Dec-11 10:00N 45°35' W 122°29'0 0.0
2017-Dec-11 09:30N 45°35' W 122°29'0 0.0
2017-Dec-11 09:00N 45°35' W 122°29'0 0.0
2017-Dec-11 08:30N 45°35' W 122°29'0 0.0
2017-Dec-11 08:00N 45°35' W 122°29'0 0.0
2017-Dec-11 07:30N 45°35' W 122°29'0 0.0
2017-Dec-11 07:00N 45°35' W 122°29'0 0.0
2017-Dec-11 06:30N 45°35' W 122°29'0 0.0
2017-Dec-11 06:00N 45°35' W 122°29'0 0.0
2017-Dec-11 05:30N 45°35' W 122°29'0 0.0
2017-Dec-11 05:00N 45°35' W 122°29'0 0.0
2017-Dec-11 04:30N 45°35' W 122°29'0 0.0
2017-Dec-11 04:00N 45°35' W 122°29'4 8.6
2017-Dec-11 03:30N 45°35' W 122°23'510.4
2017-Dec-11 03:00N 45°33' W 122°16'510.5
2017-Dec-11 02:30N 45°35' W 122°09'5 9.8
2017-Dec-11 02:01N 45°37' W 122°02'10 1.6
2017-Dec-10 19:59N 45°42' W 121°51'6 4.5
2017-Dec-10 18:34N 45°38' W 121°58'1 6.1
2017-Dec-10 18:29N 45°38' W 121°58'2 3.4
2017-Dec-10 17:59N 45°37' W 122°01'3 5.6
2017-Dec-10 17:30N 45°36' W 122°04'3 6.5
2017-Dec-10 17:00N 45°35' W 122°09'3 5.9
2017-Dec-10 16:30N 45°34' W 122°12'3 5.7
2017-Dec-10 16:00N 45°33' W 122°16'3 6.0
2017-Dec-10 15:31N 45°33' W 122°20'3 5.4
2017-Dec-10 15:00N 45°34' W 122°24'3 5.9
2017-Dec-10 14:30N 45°35' W 122°28'1 1.4
2017-Dec-10 14:00N 45°35' W 122°29'0 0.0
2017-Dec-10 13:30N 45°35' W 122°29'0 0.0
2017-Dec-10 13:00N 45°35' W 122°29'0 0.0
2017-Dec-10 12:30N 45°35' W 122°29'0 0.0
2017-Dec-10 12:00N 45°35' W 122°29'0 0.0
2017-Dec-10 11:30N 45°35' W 122°29'1 1.0
2017-Dec-10 11:00N 45°35' W 122°30'2 4.7
2017-Dec-10 10:30N 45°36' W 122°33'2 4.9
2017-Dec-10 10:01N 45°36' W 122°36'3 5.1
2017-Dec-10 09:30N 45°37' W 122°40'3 5.1
2017-Dec-10 09:00N 45°38' W 122°43'2 4.8
2017-Dec-10 08:30N 45°39' W 122°46'2 4.8
2017-Dec-10 08:01N 45°37' W 122°47'0 0.1
2017-Dec-10 07:31N 45°37' W 122°47'0 0.0
2017-Dec-10 07:01N 45°37' W 122°47'0 0.0
2017-Dec-10 06:31N 45°37' W 122°47'0 0.2
2017-Dec-10 06:00N 45°37' W 122°47'2 3.5
2017-Dec-10 05:30N 45°38' W 122°47'3 6.6
2017-Dec-10 05:01N 45°42' W 122°46'3 6.9
2017-Dec-10 04:31N 45°45' W 122°46'3 6.9
2017-Dec-10 04:01N 45°48' W 122°47'3 6.7
2017-Dec-10 03:31N 45°52' W 122°47'3 6.5
2017-Dec-10 03:00N 45°55' W 122°48'3 6.3
2017-Dec-10 02:31N 45°58' W 122°49'3 6.3
2017-Dec-10 02:01N 46°01' W 122°52'3 5.8
2017-Dec-10 01:31N 46°03' W 122°53'3 5.4
2017-Dec-10 01:01N 46°06' W 122°55'2 4.9
2017-Dec-10 00:30N 46°07' W 122°58'0 0.2
2017-Dec-10 00:00N 46°07' W 122°58'0 0.9
2017-Dec-09 23:30N 46°07' W 122°58'0 0.6
2017-Dec-09 23:01N 46°07' W 122°58'0 0.2
2017-Dec-09 22:30N 46°07' W 122°58'1 2.7
2017-Dec-09 22:01N 46°06' W 122°57'1 0.0
2017-Dec-08 04:44N 46°05' W 122°56'1 3.8
2017-Dec-08 04:30N 46°06' W 122°57'1 2.1
2017-Dec-08 04:00N 46°07' W 122°58'0 0.3
2017-Dec-08 03:30N 46°07' W 122°58'0 0.3
2017-Dec-08 03:00N 46°07' W 122°58'2 3.8
2017-Dec-08 02:30N 46°06' W 122°55'1 1.1
2017-Dec-08 02:00N 46°06' W 122°56'0 0.3
2017-Dec-08 01:30N 46°06' W 122°56'0 0.7
2017-Dec-08 01:00N 46°06' W 122°55'2 3.7
2017-Dec-08 00:30N 46°07' W 122°58'2 3.6
2017-Dec-08 00:00N 46°05' W 122°56'1 2.6
2017-Dec-07 23:31N 46°06' W 122°57'0 0.8
2017-Dec-07 23:00N 46°07' W 122°58'3 5.7
2017-Dec-07 22:30N 46°05' W 122°54'4 8.5
2017-Dec-07 22:00N 46°01' W 122°52'4 8.7
2017-Dec-07 21:30N 45°57' W 122°49'4 8.8
2017-Dec-07 21:00N 45°53' W 122°48'4 8.4
2017-Dec-07 20:30N 45°49' W 122°48'4 8.4
2017-Dec-07 20:01N 45°45' W 122°46'4 8.4
2017-Dec-07 19:30N 45°41' W 122°46'4 7.5
2017-Dec-07 19:00N 45°38' W 122°42'3 5.6
2017-Dec-07 18:30N 45°37' W 122°39'4 7.9
2017-Dec-07 18:00N 45°36' W 122°33'4 8.1
2017-Dec-07 17:30N 45°34' W 122°28'4 7.7
2017-Dec-07 17:00N 45°35' W 122°23'4 8.0
2017-Dec-07 16:30N 45°33' W 122°17'4 8.5
2017-Dec-07 16:00N 45°34' W 122°12'4 7.9
2017-Dec-07 15:28N 45°35' W 122°06'  
2017-Dec-04 10:30N 46°04' W 122°53'4 7.3
2017-Dec-04 10:00N 46°00' W 122°51'4 7.7
2017-Dec-04 09:30N 45°57' W 122°49'6 8.1
2017-Dec-04 08:49N 45°51' W 122°47'2 7.9
2017-Dec-04 08:30N 45°49' W 122°48'4 7.7
2017-Dec-04 08:00N 45°45' W 122°46'4 7.1
2017-Dec-04 07:30N 45°42' W 122°46'3 6.3
2017-Dec-04 07:00N 45°39' W 122°45'3 6.8
2017-Dec-04 06:30N 45°37' W 122°40'3 6.8
2017-Dec-04 06:00N 45°36' W 122°36'3 6.7
2017-Dec-04 05:30N 45°35' W 122°31'3 6.6
2017-Dec-04 04:59N 45°34' W 122°27'3 6.8
2017-Dec-04 04:30N 45°34' W 122°22'3 6.5
2017-Dec-04 04:00N 45°33' W 122°18'3 6.4
2017-Dec-04 03:30N 45°33' W 122°13'3 6.0
2017-Dec-04 03:00N 45°35' W 122°10'3 5.9
2017-Dec-04 02:30N 45°35' W 122°05'  
Track history (hours):
 
Tides and Currents Weather Stations Pressure Air Temp Water Temp Dewpoint Dewpoint Depression Visibility Wind Speed Wind Dir Waves Ship Positions

Kathryn B.

Owner: Bernert Barge Lines, Oregon City, OR. More information available from US FCC via Universal Licensing System and Coast Guard Vessel Documentation Center.

Last reported at 2017-Dec-11 17:00 UTC. Time now 2017-Dec-13 14:59 UTC.
Position N 45°33' W 122°18'.

Length 34 m; draft 2.1 m.

Type: Towing. MMSI: 2421136.

Date/timePositionNaut miles runAvg speedWind from/ knotsBaromVisibWave heightAir tempDewpointWater temp
2017-Dec-11 17:00N 45°33' W 122°18'3 6.1
2017-Dec-11 16:30N 45°34' W 122°22'3 5.8
2017-Dec-11 16:00N 45°34' W 122°26'2 4.4
2017-Dec-11 15:30N 45°35' W 122°29'0 0.1
2017-Dec-11 15:00N 45°35' W 122°29'0 0.0
2017-Dec-11 14:30N 45°35' W 122°29'0 0.1
2017-Dec-11 14:00N 45°35' W 122°29'0 0.0
2017-Dec-11 13:30N 45°35' W 122°29'0 0.0
2017-Dec-11 13:00N 45°35' W 122°29'0 0.0
2017-Dec-11 12:30N 45°35' W 122°29'0 0.0
2017-Dec-11 12:00N 45°35' W 122°29'0 0.0
2017-Dec-11 11:30N 45°35' W 122°29'0 0.0
2017-Dec-11 11:00N 45°35' W 122°29'0 0.0
2017-Dec-11 10:30N 45°35' W 122°29'0 0.0
2017-Dec-11 10:00N 45°35' W 122°29'0 0.0
2017-Dec-11 09:30N 45°35' W 122°29'0 0.0
2017-Dec-11 09:00N 45°35' W 122°29'0 0.0
2017-Dec-11 08:30N 45°35' W 122°29'0 0.0
2017-Dec-11 08:00N 45°35' W 122°29'0 0.0
2017-Dec-11 07:30N 45°35' W 122°29'0 0.0
2017-Dec-11 07:00N 45°35' W 122°29'0 0.0
2017-Dec-11 06:30N 45°35' W 122°29'0 0.0
2017-Dec-11 06:00N 45°35' W 122°29'0 0.0
2017-Dec-11 05:30N 45°35' W 122°29'0 0.0
2017-Dec-11 05:00N 45°35' W 122°29'0 0.0
2017-Dec-11 04:30N 45°35' W 122°29'0 0.0
2017-Dec-11 04:00N 45°35' W 122°29'4 8.6
2017-Dec-11 03:30N 45°35' W 122°23'510.4
2017-Dec-11 03:00N 45°33' W 122°16'510.5
2017-Dec-11 02:30N 45°35' W 122°09'5 9.8
2017-Dec-11 02:01N 45°37' W 122°02'10 1.6
2017-Dec-10 19:59N 45°42' W 121°51'6 4.5
2017-Dec-10 18:34N 45°38' W 121°58'1 6.1
2017-Dec-10 18:29N 45°38' W 121°58'2 3.4
2017-Dec-10 17:59N 45°37' W 122°01'3 5.6
2017-Dec-10 17:30N 45°36' W 122°04'3 6.5
2017-Dec-10 17:00N 45°35' W 122°09'3 5.9
2017-Dec-10 16:30N 45°34' W 122°12'3 5.7
2017-Dec-10 16:00N 45°33' W 122°16'3 6.0
2017-Dec-10 15:31N 45°33' W 122°20'3 5.4
2017-Dec-10 15:00N 45°34' W 122°24'3 5.9
2017-Dec-10 14:30N 45°35' W 122°28'1 1.4
2017-Dec-10 14:00N 45°35' W 122°29'0 0.0
2017-Dec-10 13:30N 45°35' W 122°29'0 0.0
2017-Dec-10 13:00N 45°35' W 122°29'0 0.0
2017-Dec-10 12:30N 45°35' W 122°29'0 0.0
2017-Dec-10 12:00N 45°35' W 122°29'0 0.0
2017-Dec-10 11:30N 45°35' W 122°29'1 1.0
2017-Dec-10 11:00N 45°35' W 122°30'2 4.7
2017-Dec-10 10:30N 45°36' W 122°33'2 4.9
2017-Dec-10 10:01N 45°36' W 122°36'3 5.1
2017-Dec-10 09:30N 45°37' W 122°40'3 5.1
2017-Dec-10 09:00N 45°38' W 122°43'2 4.8
2017-Dec-10 08:30N 45°39' W 122°46'2 4.8
2017-Dec-10 08:01N 45°37' W 122°47'0 0.1
2017-Dec-10 07:31N 45°37' W 122°47'0 0.0
2017-Dec-10 07:01N 45°37' W 122°47'0 0.0
2017-Dec-10 06:31N 45°37' W 122°47'0 0.2
2017-Dec-10 06:00N 45°37' W 122°47'2 3.5
2017-Dec-10 05:30N 45°38' W 122°47'3 6.6
2017-Dec-10 05:01N 45°42' W 122°46'3 6.9
2017-Dec-10 04:31N 45°45' W 122°46'3 6.9
2017-Dec-10 04:01N 45°48' W 122°47'3 6.7
2017-Dec-10 03:31N 45°52' W 122°47'3 6.5
2017-Dec-10 03:00N 45°55' W 122°48'3 6.3
2017-Dec-10 02:31N 45°58' W 122°49'3 6.3
2017-Dec-10 02:01N 46°01' W 122°52'3 5.8
2017-Dec-10 01:31N 46°03' W 122°53'3 5.4
2017-Dec-10 01:01N 46°06' W 122°55'2 4.9
2017-Dec-10 00:30N 46°07' W 122°58'0 0.2
2017-Dec-10 00:00N 46°07' W 122°58'0 0.9
2017-Dec-09 23:30N 46°07' W 122°58'0 0.6
2017-Dec-09 23:01N 46°07' W 122°58'0 0.2
2017-Dec-09 22:30N 46°07' W 122°58'1 2.7
2017-Dec-09 22:01N 46°06' W 122°57'1 0.0
2017-Dec-08 04:44N 46°05' W 122°56'1 3.8
2017-Dec-08 04:30N 46°06' W 122°57'1 2.1
2017-Dec-08 04:00N 46°07' W 122°58'0 0.3
2017-Dec-08 03:30N 46°07' W 122°58'0 0.3
2017-Dec-08 03:00N 46°07' W 122°58'2 3.8
2017-Dec-08 02:30N 46°06' W 122°55'1 1.1
2017-Dec-08 02:00N 46°06' W 122°56'0 0.3
2017-Dec-08 01:30N 46°06' W 122°56'0 0.7
2017-Dec-08 01:00N 46°06' W 122°55'2 3.7
2017-Dec-08 00:30N 46°07' W 122°58'2 3.6
2017-Dec-08 00:00N 46°05' W 122°56'1 2.6
2017-Dec-07 23:31N 46°06' W 122°57'0 0.8
2017-Dec-07 23:00N 46°07' W 122°58'3 5.7
2017-Dec-07 22:30N 46°05' W 122°54'4 8.5
2017-Dec-07 22:00N 46°01' W 122°52'4 8.7
2017-Dec-07 21:30N 45°57' W 122°49'4 8.8
2017-Dec-07 21:00N 45°53' W 122°48'4 8.4
2017-Dec-07 20:30N 45°49' W 122°48'4 8.4
2017-Dec-07 20:01N 45°45' W 122°46'4 8.4
2017-Dec-07 19:30N 45°41' W 122°46'4 7.5
2017-Dec-07 19:00N 45°38' W 122°42'3 5.6
2017-Dec-07 18:30N 45°37' W 122°39'4 7.9
2017-Dec-07 18:00N 45°36' W 122°33'4 8.1
2017-Dec-07 17:30N 45°34' W 122°28'4 7.7
2017-Dec-07 17:00N 45°35' W 122°23'4 8.0
2017-Dec-07 16:30N 45°33' W 122°17'4 8.5
2017-Dec-07 16:00N 45°34' W 122°12'4 7.9
2017-Dec-07 15:28N 45°35' W 122°06'  
2017-Dec-04 10:30N 46°04' W 122°53'4 7.3
2017-Dec-04 10:00N 46°00' W 122°51'4 7.7
2017-Dec-04 09:30N 45°57' W 122°49'6 8.1
2017-Dec-04 08:49N 45°51' W 122°47'2 7.9
2017-Dec-04 08:30N 45°49' W 122°48'4 7.7
2017-Dec-04 08:00N 45°45' W 122°46'4 7.1
2017-Dec-04 07:30N 45°42' W 122°46'3 6.3
2017-Dec-04 07:00N 45°39' W 122°45'3 6.8
2017-Dec-04 06:30N 45°37' W 122°40'3 6.8
2017-Dec-04 06:00N 45°36' W 122°36'3 6.7
2017-Dec-04 05:30N 45°35' W 122°31'3 6.6
2017-Dec-04 04:59N 45°34' W 122°27'3 6.8
2017-Dec-04 04:30N 45°34' W 122°22'3 6.5
2017-Dec-04 04:00N 45°33' W 122°18'3 6.4
2017-Dec-04 03:30N 45°33' W 122°13'3 6.0
2017-Dec-04 03:00N 45°35' W 122°10'3 5.9
2017-Dec-04 02:30N 45°35' W 122°05'  

Dump ship's entire track history